Harvey, Mississippi
Current Conditions -  °F | °C
As of 7:53 PM on Thursday 20 Nov 2014 (Local Time) from KHBG Reporting Station
Clear Clear  
Wind Chill: 55°   Ceiling: Unl
Heat Index: 55°   Visibility: 10mi
Dew Point: 43°   Wind: 3mph
Humidity: 64%   Direction: 190°S
Pressure: 30.24"   Gusts: NA
Location:  31.3432°N, 89.178°W
Report Text: KHBG 210153Z AUTO 19003KT 10SM CLR 13/06 A3024 RMK AO2 SLP240 T01280061 $
Loading
Personal Weather Stations






























Interactive Weather Map New forecast layout! Learn more

10-Day Weather Forecast

Advertisements
Track Severe Weather on mobile